TimeCDT,TemperatureF,Dew PointF,Humidity,Sea Level PressureIn,VisibilityMPH,Wind Direction,Wind SpeedMPH,Gust SpeedMPH,PrecipitationIn,Events,Conditions,WindDirDegrees,DateUTC
12:53 AM,51.1,46.0,83,29.91,10.0,SE,5.8,-,N/A,,Clear,130,2012-10-03 05:53:00
1:53 AM,50.0,45.0,83,29.91,10.0,SE,5.8,-,N/A,,Clear,130,2012-10-03 06:53:00
2:53 AM,48.9,46.0,90,29.92,10.0,SSE,3.5,-,N/A,,Clear,150,2012-10-03 07:53:00
3:53 AM,48.9,46.0,90,29.93,10.0,Calm,Calm,-,N/A,,Clear,0,2012-10-03 08:53:00
4:53 AM,46.9,45.0,93,29.93,9.0,SE,3.5,-,N/A,,Clear,140,2012-10-03 09:53:00
5:53 AM,45.0,44.1,97,29.95,8.0,SE,4.6,-,N/A,,Clear,130,2012-10-03 10:53:00
6:53 AM,45.0,44.1,97,29.96,8.0,SE,5.8,-,N/A,,Clear,130,2012-10-03 11:53:00
7:53 AM,48.0,46.0,93,29.97,6.0,SE,3.5,-,N/A,,Clear,130,2012-10-03 12:53:00
8:53 AM,51.1,48.0,89,29.97,6.0,SSE,5.8,-,N/A,,Clear,150,2012-10-03 13:53:00
9:53 AM,57.0,48.0,72,29.97,9.0,SSE,4.6,-,N/A,,Clear,150,2012-10-03 14:53:00
10:53 AM,63.0,46.9,56,29.96,-9999.0,SSE,5.8,-,N/A,,Clear,160,2012-10-03 15:53:00
11:53 AM,68.0,46.0,45,29.94,10.0,SSE,5.8,-,N/A,,Clear,160,2012-10-03 16:53:00
12:53 PM,73.0,46.0,38,29.92,10.0,South,8.1,-,N/A,,Clear,180,2012-10-03 17:53:00
1:53 PM,75.0,45.0,34,29.90,10.0,South,9.2,-,N/A,,Clear,190,2012-10-03 18:53:00
2:53 PM,75.0,45.0,34,29.88,10.0,South,6.9,-,N/A,,Clear,180,2012-10-03 19:53:00
3:53 PM,75.9,43.0,31,29.87,10.0,South,6.9,-,N/A,,Clear,190,2012-10-03 20:53:00
4:53 PM,75.9,43.0,31,29.88,10.0,South,6.9,-,N/A,,Clear,180,2012-10-03 21:53:00
5:53 PM,73.0,45.0,37,29.88,10.0,South,4.6,-,N/A,,Clear,180,2012-10-03 22:53:00
6:53 PM,68.0,46.9,47,29.90,10.0,SSE,3.5,-,N/A,,Clear,160,2012-10-03 23:53:00
7:53 PM,63.0,48.0,58,29.91,10.0,Calm,Calm,-,N/A,,Clear,0,2012-10-04 00:53:00
8:53 PM,59.0,46.0,62,29.92,10.0,SE,3.5,-,N/A,,Clear,130,2012-10-04 01:53:00
10:53 PM,55.9,46.0,69,29.93,10.0,SSE,4.6,-,N/A,,Clear,150,2012-10-04 03:53:00
11:53 PM,55.9,46.0,69,29.94,10.0,SSE,3.5,-,N/A,,Clear,160,2012-10-04 04:53:00